Time;durP1;ratioP1;P1;durP2;ratioP2;P2;SDS_P1;SDS_P2;PMS_P1;PMS_P2;Temp;Humidity;BMP_temperature;BMP_pressure;BME280_temperature;BME280_humidity;BME280_pressure;Samples;Min_cycle;Max_cycle;Signal;HPM_P1;HPM_P2
2021/12/04 00:01:10;;;;;;;2.28;1.30;;;;;;;;;;5093251;28;20035;-45
2021/12/04 00:03:36;;;;;;;2.78;1.50;;;;;;;;;;5093067;28;20052;-44
2021/12/04 00:06:07;;;;;;;2.05;1.80;;;;;;;;;;5093219;28;20055;-46
2021/12/04 00:08:35;;;;;;;1.80;1.63;;;;;;;;;;5093423;28;20031;-45
2021/12/04 00:11:01;;;;;;;2.78;1.35;;;;;;;;;;5093173;28;20032;-46
2021/12/04 00:13:27;;;;;;;1.67;1.45;;;;;;;;;;5093285;28;20020;-45
2021/12/04 00:15:53;;;;;;;1.98;1.30;;;;;;;;;;5092976;28;20493;-45
2021/12/04 00:18:19;;;;;;;2.97;1.67;;;;;;;;;;5093138;28;20020;-46
2021/12/04 00:20:45;;;;;;;1.52;1.20;;;;;;;;;;5092024;28;20066;-45
2021/12/04 00:23:11;;;;;;;1.85;1.50;;;;;;;;;;5092865;28;20425;-46
2021/12/04 00:25:40;;;;;;;1.92;1.45;;;;;;;;;;5092775;28;20111;-45
2021/12/04 00:28:07;;;;;;;2.67;1.77;;;15.50;74.20;;;;;;5092855;28;20051;-46
2021/12/04 00:30:33;;;;;;;3.28;1.65;;;;;;;;;;5093015;28;20024;-46
2021/12/04 00:33:02;;;;;;;2.17;1.95;;;;;;;;;;5092661;28;20024;-45
2021/12/04 00:51:42;;;;;;;2.35;1.95;;;15.60;74.80;;;;;;5092649;28;20042;-45
2021/12/04 00:54:12;;;;;;;4.15;1.70;;;;;;;;;;5092748;28;20024;-46
2021/12/04 00:56:40;;;;;;;1.85;1.40;;;15.50;75.10;;;;;;5092604;28;20032;-45
2021/12/04 00:59:06;;;;;;;4.68;1.88;;;;;;;;;;5092749;28;20028;-45
2021/12/04 01:01:33;;;;;;;2.60;1.70;;;;;;;;;;5092431;28;20367;-45
2021/12/04 01:03:59;;;;;;;3.92;2.28;;;;;;;;;;5092022;28;20139;-45
2021/12/04 01:06:25;;;;;;;2.08;1.58;;;;;;;;;;5092311;28;20405;-45
2021/12/04 01:08:51;;;;;;;3.05;1.67;;;;;;;;;;5092090;28;20095;-45
2021/12/04 01:11:17;;;;;;;2.30;1.77;;;;;;;;;;5091972;28;20028;-45
2021/12/04 01:13:43;;;;;;;2.65;1.98;;;;;;;;;;5092185;28;20020;-44
2021/12/04 01:16:11;;;;;;;2.53;1.75;;;;;;;;;;5091934;28;20080;-45
2021/12/04 01:18:37;;;;;;;2.80;2.10;;;;;;;;;;5091975;28;20024;-44
2021/12/04 01:21:03;;;;;;;2.80;1.75;;;;;;;;;;5091885;28;20038;-45
2021/12/04 01:23:29;;;;;;;3.65;2.22;;;;;;;;;;5091926;28;20028;-45
2021/12/04 01:25:55;;;;;;;2.58;1.90;;;;;;;;;;5091912;28;20035;-45
2021/12/04 01:28:21;;;;;;;2.70;1.90;;;;;;;;;;5091918;28;20093;-44
2021/12/04 01:30:47;;;;;;;2.08;1.85;;;;;;;;;;5091873;28;20462;-45
2021/12/04 01:33:13;;;;;;;2.45;1.80;;;;;;;;;;5095041;28;20059;-45
2021/12/04 01:35:39;;;;;;;2.35;1.88;;;;;;;;;;5096164;28;20090;-44
2021/12/04 01:38:05;;;;;;;2.55;2.03;;;;;;;;;;5096045;28;20032;-44
2021/12/04 01:40:31;;;;;;;3.63;2.55;;;;;;;;;;5096179;28;20141;-46
2021/12/04 01:42:57;;;;;;;4.20;2.00;;;;;;;;;;5095996;28;20032;-45
2021/12/04 01:45:23;;;;;;;3.10;2.22;;;;;;;;;;5096053;28;20044;-45
2021/12/04 01:47:49;;;;;;;1.63;1.52;;;;;;;;;;5096103;28;20028;-45
2021/12/04 01:50:15;;;;;;;2.35;2.13;;;;;;;;;;5096003;28;20110;-44
2021/12/04 01:52:41;;;;;;;3.22;2.10;;;;;;;;;;5095966;28;20024;-45
2021/12/04 01:55:08;;;;;;;3.42;2.35;;;;;;;;;;5095717;28;20028;-45
2021/12/04 01:57:34;;;;;;;1.90;1.80;;;;;;;;;;5095932;28;20099;-45
2021/12/04 02:00:01;;;;;;;2.38;2.00;;;;;;;;;;5095567;28;20084;-45
2021/12/04 02:02:26;;;;;;;2.97;2.10;;;;;;;;;;5095609;28;20142;-45
2021/12/04 02:04:52;;;;;;;3.65;2.17;;;;;;;;;;5095370;28;20143;-44
2021/12/04 02:07:20;;;;;;;2.55;2.10;;;;;;;;;;5095731;28;20027;-44
2021/12/04 02:09:46;;;;;;;2.85;2.10;;;;;;;;;;5095674;28;20077;-45
2021/12/04 02:12:12;;;;;;;3.08;2.05;;;;;;;;;;5095697;28;20028;-45
2021/12/04 02:14:41;;;;;;;2.10;1.77;;;15.30;76.10;;;;;;5095312;28;20028;-45
2021/12/04 02:17:07;;;;;;;3.72;2.75;;;;;;;;;;5094338;28;20021;-44
2021/12/04 02:19:33;;;;;;;2.22;2.03;;;;;;;;;;5095270;28;20482;-45
2021/12/04 02:21:59;;;;;;;3.45;2.47;;;;;;;;;;5095459;28;20020;-45
2021/12/04 02:24:25;;;;;;;3.75;2.35;;;;;;;;;;5095402;28;20032;-45
2021/12/04 02:26:51;;;;;;;3.58;2.25;;;15.20;75.00;;;;;;5095398;28;20532;-45
2021/12/04 02:29:18;;;;;;;3.40;2.33;;;;;;;;;;5095235;28;20043;-45
2021/12/04 02:31:52;;;;;;;4.05;2.70;;;15.20;70.90;;;;;;5095021;28;20516;-45
2021/12/04 02:34:23;;;;;;;2.28;1.95;;;15.20;71.20;;;;;;5095266;28;20468;-45
2021/12/04 02:36:49;;;;;;;3.13;2.22;;;;;;;;;;5094861;28;20036;-45
2021/12/04 02:39:24;;;;;;;2.75;2.25;;;15.20;70.90;;;;;;5094918;28;20020;-45
2021/12/04 02:41:50;;;;;;;3.13;2.28;;;;;;;;;;5095074;28;20046;-44
2021/12/04 02:44:16;;;;;;;3.13;2.40;;;;;;;;;;5093493;28;20028;-44
2021/12/04 02:46:42;;;;;;;3.72;2.83;;;;;;;;;;5094994;28;20076;-44
2021/12/04 02:49:12;;;;;;;4.07;2.67;;;;;;;;;;5093448;28;20466;-44
2021/12/04 02:51:38;;;;;;;2.72;2.15;;;;;;;;;;5094947;28;20101;-44
2021/12/04 02:54:05;;;;;;;4.30;2.75;;;15.10;76.70;;;;;;5094569;28;20028;-45
2021/12/04 02:56:31;;;;;;;3.75;2.53;;;;;;;;;;5094522;28;20424;-45
2021/12/04 02:59:01;;;;;;;4.30;2.67;;;;;;;;;;5094760;28;20035;-45
2021/12/04 03:01:28;;;;;;;3.92;2.53;;;;;;;;;;5094758;28;20031;-44
2021/12/04 03:04:08;;;;;;;4.85;2.92;;;15.20;76.80;;;;;;5094212;28;20055;-44
2021/12/04 03:06:43;;;;;;;4.47;2.80;;;15.10;71.20;;;;;;5094442;28;20108;-45
2021/12/04 03:09:09;;;;;;;4.15;2.88;;;;;;;;;;5094618;28;20024;-44
2021/12/04 03:11:35;;;;;;;3.60;2.80;;;;;;;;;;5094264;28;20371;-45
2021/12/04 03:14:02;;;;;;;4.70;2.90;;;;;;;;;;5094153;28;20545;-45
2021/12/04 03:16:28;;;;;;;4.00;2.97;;;;;;;;;;5094192;28;20032;-45
2021/12/04 03:18:54;;;;;;;5.10;2.90;;;;;;;;;;5094341;28;20048;-45
2021/12/04 03:21:20;;;;;;;5.38;3.65;;;;;;;;;;5094073;28;20442;-45
2021/12/04 03:23:56;;;;;;;5.65;3.22;;;;;;;;;;5094285;28;20020;-45
2021/12/04 03:26:23;;;;;;;5.00;3.03;;;;;;;;;;5094043;28;20607;-45
2021/12/04 03:28:50;;;;;;;4.22;3.05;;;;;;;;;;5094290;28;20078;-44
2021/12/04 03:40:22;;;;;;;4.68;3.38;;;;;;;;;;5094050;28;20031;-45
2021/12/04 03:42:28;;;;;;;4.30;3.10;;;;;;;;;;5093308;28;20182;-45
2021/12/04 03:44:54;;;;;;;5.20;3.28;;;;;;;;;;5093636;28;20134;-45
2021/12/04 03:47:21;;;;;;;4.43;3.35;;;14.70;77.90;;;;;;5093843;28;20020;-45
2021/12/04 03:49:47;;;;;;;4.03;2.92;;;15.00;76.90;;;;;;5093458;28;20497;-44
2021/12/04 03:52:14;;;;;;;3.85;2.95;;;;;;;;;;5093786;28;20100;-46
2021/12/04 03:54:40;;;;;;;5.47;3.17;;;;;;;;;;5093430;28;20438;-44
2021/12/04 03:57:06;;;;;;;4.07;2.70;;;15.00;75.60;;;;;;5093576;28;20020;-45
2021/12/04 03:59:36;;;;;;;3.50;2.80;;;14.90;76.40;;;;;;5093346;28;20028;-45
2021/12/04 04:02:04;;;;;;;5.22;3.30;;;14.90;76.60;;;;;;5092939;28;20024;-45
2021/12/04 04:04:30;;;;;;;4.68;2.80;;;;;;;;;;5093212;28;20097;-45
2021/12/04 04:06:58;;;;;;;5.07;3.47;;;;;;;;;;5093186;28;20474;-44
2021/12/04 04:09:24;;;;;;;4.32;3.00;;;;;;;;;;5093014;28;20475;-46
2021/12/04 04:11:50;;;;;;;5.38;3.38;;;;;;;;;;5093291;28;20024;-45
2021/12/04 04:14:16;;;;;;;5.15;3.20;;;;;;;;;;5092936;28;20036;-45
2021/12/04 04:16:42;;;;;;;6.32;3.58;;;;;;;;;;5092973;28;20031;-44
2021/12/04 04:19:09;;;;;;;5.32;3.22;;;14.90;74.40;;;;;;5093163;28;20509;-44
2021/12/04 04:21:39;;;;;;;4.93;2.88;;;14.90;77.30;;;;;;5092980;28;20029;-44
2021/12/04 04:24:06;;;;;;;4.43;3.22;;;14.90;77.60;;;;;;5093159;28;20020;-45
2021/12/04 04:26:32;;;;;;;4.13;2.75;;;;;;;;;;5093168;28;20487;-45
2021/12/04 04:28:58;;;;;;;4.65;2.75;;;;;;;;;;5093108;28;20059;-44
2021/12/04 04:31:24;;;;;;;6.05;3.28;;;;;;;;;;5092922;28;20393;-45
2021/12/04 04:33:56;;;;;;;6.45;3.35;;;;;;;;;;5092696;28;20103;-45
2021/12/04 04:36:50;;;;;;;4.63;2.72;;;;;;;;;;5092692;28;20035;-45
2021/12/04 05:01:22;;;;;;;5.43;3.03;;;;;;;;;;5092580;28;20043;-46
2021/12/04 05:14:34;;;;;;;5.93;3.75;;;14.70;77.60;;;;;;5092390;28;20085;-47
2021/12/04 05:17:14;;;;;;;5.30;3.83;;;;;;;;;;5092126;28;20043;-46
2021/12/04 05:22:07;;;;;;;5.97;3.40;;;14.60;77.70;;;;;;5092161;28;20024;-45
2021/12/04 05:24:33;;;;;;;7.35;4.03;;;;;;;;;;5091713;28;20059;-48
2021/12/04 05:26:59;;;;;;;5.63;3.40;;;;;;;;;;5092221;28;20075;-45
2021/12/04 05:29:25;;;;;;;6.47;3.83;;;;;;;;;;5091737;28;20103;-46
2021/12/04 05:31:51;;;;;;;6.43;3.83;;;;;;;;;;5091809;28;20123;-45
2021/12/04 05:34:17;;;;;;;7.20;3.88;;;;;;;;;;5092145;28;20036;-46
2021/12/04 05:36:43;;;;;;;11.13;4.60;;;;;;;;;;5091810;28;20085;-46
2021/12/04 05:39:09;;;;;;;6.72;3.95;;;;;;;;;;5091946;28;20043;-46
2021/12/04 05:41:36;;;;;;;8.18;4.03;;;14.60;72.90;;;;;;5091748;28;20024;-45
2021/12/04 05:44:05;;;;;;;6.80;4.20;;;;;;;;;;5091581;28;20074;-47
2021/12/04 05:46:38;;;;;;;6.93;3.70;;;14.70;76.30;;;;;;5091987;28;20035;-45
2021/12/04 05:49:11;;;;;;;6.95;3.88;;;;;;;;;;5092030;28;20024;-46
2021/12/04 05:52:08;;;;;;;9.32;4.05;;;;;;;;;;5091721;28;20106;-45
2021/12/04 05:57:03;;;;;;;7.20;3.85;;;;;;;;;;5091961;28;20069;-47
2021/12/04 05:59:29;;;;;;;9.70;4.55;;;;;;;;;;5091756;28;20028;-45
2021/12/04 06:01:55;;;;;;;9.70;4.45;;;;;;;;;;5091575;28;20028;-46
2021/12/04 06:04:21;;;;;;;9.55;4.57;;;;;;;;;;5091360;28;20048;-46
2021/12/04 06:06:47;;;;;;;9.43;4.65;;;;;;;;;;5091463;28;20020;-45
2021/12/04 06:09:13;;;;;;;9.43;4.85;;;;;;;;;;5091783;28;20027;-47
2021/12/04 06:11:39;;;;;;;6.43;3.70;;;;;;;;;;5091605;28;20443;-46
2021/12/04 06:14:05;;;;;;;8.35;3.67;;;;;;;;;;5091826;28;20024;-46
2021/12/04 06:16:32;;;;;;;8.40;4.13;;;;;;;;;;5091692;28;20024;-47
2021/12/04 06:18:59;;;;;;;6.63;3.80;;;;;;;;;;5093853;28;20115;-46
2021/12/04 06:24:10;;;;;;;5.90;3.50;;;;;;;;;;5095395;28;20031;-45
2021/12/04 06:26:36;;;;;;;8.57;3.90;;;15.40;76.00;;;;;;5095607;28;20382;-45
2021/12/04 06:29:03;;;;;;;8.15;4.20;;;15.40;76.00;;;;;;5095725;28;20024;-46
2021/12/04 06:31:31;;;;;;;8.02;3.88;;;;;;;;;;5095441;28;20016;-45
2021/12/04 06:33:57;;;;;;;6.32;3.63;;;;;;;;;;5095232;28;20042;-46
2021/12/04 06:36:25;;;;;;;5.57;3.45;;;;;;;;;;5095200;28;20024;-46
2021/12/04 06:38:51;;;;;;;6.97;3.53;;;;;;;;;;5095140;28;20028;-47
2021/12/04 06:41:17;;;;;;;10.23;4.10;;;;;;;;;;5094930;28;20111;-46
2021/12/04 06:43:47;;;;;;;12.98;5.82;;;;;;;;;;5094974;28;20036;-45
2021/12/04 06:46:14;;;;;;;8.95;5.07;;;;;;;;;;5095009;28;20070;-47
2021/12/04 06:48:52;;;;;;;14.35;5.22;;;;;;;;;;5095378;28;20031;-45
2021/12/04 06:51:28;;;;;;;12.93;5.20;;;;;;;;;;5095013;28;20378;-47
2021/12/04 06:54:00;;;;;;;10.57;4.20;;;;;;;;;;5095031;28;20024;-45
2021/12/04 06:56:31;;;;;;;7.53;4.20;;;;;;;;;;5094642;28;20031;-45
2021/12/04 06:58:58;;;;;;;14.73;4.20;;;;;;;;;;5094878;28;20036;-46
2021/12/04 07:01:24;;;;;;;8.82;3.97;;;;;;;;;;5094554;28;20028;-46
2021/12/04 07:03:51;;;;;;;11.48;4.28;;;;;;;;;;5094404;28;20457;-45
2021/12/04 07:06:17;;;;;;;11.55;4.53;;;;;;;;;;5094658;28;20036;-45
2021/12/04 07:08:43;;;;;;;10.68;4.40;;;;;;;;;;5094874;28;20390;-45
2021/12/04 07:11:09;;;;;;;9.02;3.60;;;;;;;;;;5094452;28;20036;-45
2021/12/04 07:13:35;;;;;;;7.22;3.35;;;16.10;72.90;;;;;;5094658;28;20127;-44
2021/12/04 07:16:04;;;;;;;8.65;3.80;;;;;;;;;;5094288;28;20518;-47
2021/12/04 07:18:30;;;;;;;8.13;4.13;;;;;;;;;;5094595;28;20024;-47
2021/12/04 07:20:56;;;;;;;7.82;3.67;;;;;;;;;;5094166;28;20482;-46
2021/12/04 07:23:22;;;;;;;6.55;3.50;;;;;;;;;;5094112;28;20482;-45
2021/12/04 07:25:48;;;;;;;8.32;3.65;;;;;;;;;;5094161;28;20043;-45
2021/12/04 07:28:14;;;;;;;6.50;3.45;;;;;;;;;;5094141;28;20028;-44
2021/12/04 07:30:41;;;;;;;7.60;3.17;;;;;;;;;;5093724;28;20386;-45
2021/12/04 07:33:06;;;;;;;8.05;3.97;;;;;;;;;;5094245;28;20027;-46
2021/12/04 07:35:32;;;;;;;7.93;4.00;;;;;;;;;;5094174;28;20031;-45
2021/12/04 07:38:00;;;;;;;8.70;4.07;;;;;;;;;;5093892;28;20145;-45
2021/12/04 07:40:26;;;;;;;8.27;3.50;;;;;;;;;;5093821;28;20110;-46
2021/12/04 07:42:52;;;;;;;6.60;3.53;;;;;;;;;;5094142;28;20241;-45
2021/12/04 07:45:18;;;;;;;8.00;3.42;;;;;;;;;;5093788;28;20040;-45
2021/12/04 07:47:44;;;;;;;5.40;3.53;;;;;;;;;;5094005;28;20081;-46
2021/12/04 07:50:10;;;;;;;7.78;4.18;;;;;;;;;;5093666;28;20424;-45
2021/12/04 07:52:38;;;;;;;7.72;3.53;;;15.80;73.20;;;;;;5093564;28;20471;-46
2021/12/04 07:55:06;;;;;;;8.80;3.92;;;15.60;76.40;;;;;;5093860;28;20058;-47
2021/12/04 07:57:32;;;;;;;11.68;4.32;;;;;;;;;;5093851;28;20400;-47
2021/12/04 07:59:58;;;;;;;11.45;4.30;;;;;;;;;;5092940;28;20028;-46
2021/12/04 08:02:24;;;;;;;8.48;4.10;;;;;;;;;;5092962;28;20548;-46
2021/12/04 08:04:50;;;;;;;6.90;3.90;;;;;;;;;;5093380;28;20036;-45
2021/12/04 08:07:16;;;;;;;8.50;3.92;;;;;;;;;;5093431;28;20055;-46
2021/12/04 08:09:42;;;;;;;8.20;3.90;;;;;;;;;;5093618;28;20462;-46
2021/12/04 08:12:10;;;;;;;10.20;4.32;;;;;;;;;;5093325;28;20529;-46
2021/12/04 08:14:36;;;;;;;9.13;3.92;;;;;;;;;;5093311;28;20028;-45
2021/12/04 08:17:02;;;;;;;9.13;4.15;;;;;;;;;;5093472;28;20032;-46
2021/12/04 08:19:28;;;;;;;10.15;4.72;;;;;;;;;;5093503;28;20024;-45
2021/12/04 08:21:54;;;;;;;9.20;4.47;;;;;;;;;;5093345;28;20028;-45
2021/12/04 08:24:20;;;;;;;8.80;4.15;;;;;;;;;;5093267;28;20028;-46
2021/12/04 08:26:47;;;;;;;17.02;4.63;;;;;;;;;;5093001;28;20421;-47
2021/12/04 08:29:13;;;;;;;8.55;4.35;;;15.80;75.10;;;;;;5092907;28;20044;-47
2021/12/04 08:31:39;;;;;;;8.57;4.22;;;;;;;;;;5093080;28;20051;-47
2021/12/04 08:34:05;;;;;;;8.35;4.05;;;;;;;;;;5092934;28;20027;-45
2021/12/04 08:36:32;;;;;;;9.32;4.68;;;;;;;;;;5093209;28;20027;-47
2021/12/04 08:38:59;;;;;;;9.90;4.40;;;;;;;;;;5093223;28;20031;-46
2021/12/04 08:41:25;;;;;;;8.32;4.22;;;;;;;;;;5092371;28;20028;-44
2021/12/04 08:43:54;;;;;;;10.35;5.00;;;;;;;;;;5092536;28;20382;-44
2021/12/04 08:46:20;;;;;;;11.93;4.55;;;;;;;;;;5092588;28;20043;-45
2021/12/04 08:48:51;;;;;;;10.82;4.78;;;15.90;74.80;;;;;;5092932;28;20059;-45
2021/12/04 08:51:18;;;;;;;9.68;4.43;;;16.00;73.90;;;;;;5092639;28;20618;-46
2021/12/04 08:53:44;;;;;;;8.23;4.13;;;16.00;71.80;;;;;;5092519;28;20475;-45
2021/12/04 08:56:10;;;;;;;9.15;4.18;;;;;;;;;;5092739;28;20024;-45
2021/12/04 08:58:39;;;;;;;11.13;4.28;;;;;;;;;;5092866;28;20032;-45
2021/12/04 09:01:11;;;;;;;10.38;4.53;;;16.00;74.30;;;;;;5092494;28;20035;-44
2021/12/04 09:03:42;;;;;;;9.70;4.70;;;16.00;74.40;;;;;;5092335;28;20047;-45
2021/12/04 09:06:08;;;;;;;8.75;5.13;;;;;;;;;;5092243;28;20036;-44
2021/12/04 09:08:34;;;;;;;9.75;4.45;;;;;;;;;;5092554;28;20047;-44
2021/12/04 09:11:05;;;;;;;8.63;4.43;;;16.00;74.40;;;;;;5092343;28;20478;-44
2021/12/04 09:13:32;;;;;;;9.88;4.15;;;;;;;;;;5092593;28;20085;-44
2021/12/04 09:15:58;;;;;;;8.07;3.95;;;;;;;;;;5092209;28;20032;-45
2021/12/04 09:18:24;;;;;;;7.63;4.10;;;;;;;;;;5092201;28;20056;-44
2021/12/04 09:20:51;;;;;;;9.57;4.13;;;;;;;;;;5092181;28;20111;-44
2021/12/04 09:23:19;;;;;;;9.05;4.50;;;;;;;;;;5092123;28;20546;-44
2021/12/04 09:25:51;;;;;;;8.43;3.85;;;;;;;;;;5092305;28;20039;-45
2021/12/04 10:01:08;;;;;;;10.23;4.85;;;;;;;;;;5096210;28;20154;-45
2021/12/04 10:11:55;;;;;;;14.88;5.82;;;16.80;71.50;;;;;;5096091;28;20039;-46
2021/12/04 10:17:19;;;;;;;9.57;4.53;;;;;;;;;;5096083;28;20081;-44
2021/12/04 10:20:00;;;;;;;14.95;6.55;;;;;;;;;;5095456;28;20023;-45
2021/12/04 10:22:41;;;;;;;9.63;5.15;;;;;;;;;;5095849;28;20028;-44
2021/12/04 10:33:43;;;;;;;13.38;5.72;;;16.40;67.90;;;;;;5095725;28;20507;-44
2021/12/04 10:36:10;;;;;;;13.77;5.43;;;;;;;;;;5095538;28;20023;-44
2021/12/04 10:38:43;;;;;;;12.82;5.65;;;;;;;;;;5094945;28;20122;-52
2021/12/04 10:41:10;;;;;;;13.43;5.90;;;16.90;73.20;;;;;;5095204;28;20107;-50
2021/12/04 10:43:36;;;;;;;14.27;6.03;;;;;;;;;;5095203;28;20032;-50
2021/12/04 10:46:13;;;;;;;13.50;5.85;;;16.90;73.20;;;;;;5095325;28;20387;-50
2021/12/04 10:48:47;;;;;;;15.25;5.97;;;;;;;;;;5095321;28;20043;-53
2021/12/04 10:51:29;;;;;;;16.80;7.40;;;;;;;;;;5094983;28;20095;-52
2021/12/04 10:53:57;;;;;;;17.98;7.25;;;;;;;;;;5094979;28;20024;-50
2021/12/04 11:01:39;;;;;;;13.98;6.32;;;17.00;67.20;;;;;;5095030;28;20089;-50
2021/12/04 11:04:40;;;;;;;15.43;6.43;;;16.90;67.50;;;;;;5094245;28;20517;-52
2021/12/04 11:43:08;;;;;;;13.00;5.38;;;16.90;72.40;;;;;;5094052;28;20205;-52
2021/12/04 11:46:21;;;;;;;11.00;5.43;;;16.90;66.90;;;;;;5094232;28;20130;-50
2021/12/04 11:48:47;;;;;;;10.85;5.32;;;;;;;;;;5075466;28;20063;-50
2021/12/04 11:51:17;;;;;;;12.45;5.75;;;16.90;72.70;;;;;;5093844;28;20040;-52
2021/12/04 11:53:43;;;;;;;12.52;5.82;;;16.90;69.30;;;;;;5094080;28;20035;-52
2021/12/04 11:56:24;;;;;;;10.77;5.40;;;16.90;67.20;;;;;;5093753;28;20024;-49
2021/12/04 11:58:52;;;;;;;10.40;5.68;;;16.80;72.60;;;;;;5093820;28;20021;-51
2021/12/04 12:01:35;;;;;;;11.63;5.70;;;17.00;67.20;;;;;;5093773;28;20430;-52
2021/12/04 12:04:07;;;;;;;11.68;5.97;;;16.90;67.10;;;;;;5093422;28;20075;-50
2021/12/04 12:06:43;;;;;;;11.60;5.70;;;16.80;72.60;;;;;;5093763;28;20040;-51
2021/12/04 12:09:09;;;;;;;10.52;5.65;;;;;;;;;;5093583;28;20107;-50
2021/12/04 12:11:35;;;;;;;10.07;5.53;;;16.80;72.30;;;;;;5093425;28;20141;-50
2021/12/04 12:14:10;;;;;;;10.85;5.97;;;16.80;66.50;;;;;;5093601;28;20061;-52
2021/12/04 12:16:41;;;;;;;10.80;5.57;;;16.80;72.20;;;;;;5093375;28;20093;-54
2021/12/04 12:19:22;;;;;;;8.93;5.15;;;16.80;66.80;;;;;;5093568;28;20020;-54
2021/12/04 12:22:01;;;;;;;12.35;6.35;;;16.80;66.70;;;;;;5093491;28;20092;-53
2021/12/04 12:38:54;;;;;;;11.43;5.53;;;16.90;67.40;;;;;;5092972;28;20043;-44
2021/12/04 12:41:35;;;;;;;;;;;16.90;68.60;;;;;;5092401;28;20032;-46
2021/12/04 12:44:17;;;;;;;9.77;5.88;;;16.80;70.30;;;;;;5093486;28;20274;-45
2021/12/04 12:47:02;;;;;;;10.98;6.00;;;16.70;70.60;;;;;;5093333;28;20093;-45
2021/12/04 12:49:40;;;;;;;13.00;6.63;;;16.90;72.30;;;;;;5091839;28;20022;-45
2021/12/04 12:52:15;;;;;;;14.85;6.78;;;16.90;78.80;;;;;;5093404;28;20020;-45
2021/12/04 12:55:03;;;;;;;10.38;6.43;;;17.00;78.50;;;;;;5092976;28;20103;-45
2021/12/04 12:57:38;;;;;;;12.05;5.78;;;16.80;74.10;;;;;;5092675;28;20028;-47
2021/12/04 13:14:29;;;;;;;7.72;5.95;;;17.20;74.50;;;;;;5092833;28;20120;-39
2021/12/04 13:17:01;;;;;;;7.05;5.00;;;17.20;74.30;;;;;;5092449;28;20153;-40
2021/12/04 13:19:28;;;;;;;9.45;5.82;;;;;;;;;;5092545;28;20372;-40
2021/12/04 13:21:59;;;;;;;9.60;5.30;;;17.30;80.00;;;;;;5092588;28;20054;-40
2021/12/04 13:24:28;;;;;;;7.82;5.65;;;17.50;79.70;;;;;;5092238;28;20020;-39
2021/12/04 13:26:56;;;;;;;9.10;5.22;;;17.40;79.60;;;;;;5092234;28;20110;-38
2021/12/04 13:29:24;;;;;;;7.28;5.47;;;17.20;79.20;;;;;;5091652;28;20414;-40
2021/12/04 13:31:55;;;;;;;8.82;5.53;;;17.40;74.10;;;;;;5092414;28;20020;-38
2021/12/04 13:34:26;;;;;;;6.07;4.13;;;17.40;73.90;;;;;;5091919;28;20035;-39
2021/12/04 13:36:53;;;;;;;6.78;5.40;;;;;;;;;;5091980;28;20028;-39
2021/12/04 13:39:20;;;;;;;7.40;4.63;;;17.40;77.50;;;;;;5092283;28;20045;-38
2021/12/04 13:41:48;;;;;;;7.65;4.93;;;17.40;79.50;;;;;;5091971;28;20028;-39
2021/12/04 13:44:16;;;;;;;6.88;4.60;;;17.40;79.30;;;;;;5091913;28;20024;-39
2021/12/04 13:46:54;;;;;;;8.23;4.43;;;17.40;79.60;;;;;;5092181;28;20044;-39
2021/12/04 13:49:34;;;;;;;5.03;4.25;;;17.30;74.30;;;;;;5092125;28;20355;-39
2021/12/04 13:52:08;;;;;;;7.18;4.50;;;17.40;79.60;;;;;;5092308;28;20024;-38
2021/12/04 13:54:42;;;;;;;6.85;4.55;;;17.40;79.80;;;;;;5092053;28;20107;-43
2021/12/04 13:57:14;;;;;;;6.18;4.68;;;17.50;79.70;;;;;;5092335;28;20125;-45
2021/12/04 13:59:40;;;;;;;5.47;4.40;;;;;;;;;;5092214;28;20031;-45
2021/12/04 14:02:06;;;;;;;5.72;4.05;;;;;;;;;;5091398;28;20024;-44
2021/12/04 14:04:32;;;;;;;6.63;4.60;;;;;;;;;;5092011;28;20028;-44
2021/12/04 14:07:02;;;;;;;5.22;3.75;;;17.30;79.50;;;;;;5090569;28;20028;-46
2021/12/04 14:09:36;;;;;;;5.45;3.80;;;17.30;74.00;;;;;;5091821;28;20100;-44
2021/12/04 14:12:04;;;;;;;4.40;3.88;;;17.70;79.70;;;;;;5092389;28;20032;-44
2021/12/04 14:14:32;;;;;;;4.20;3.42;;;17.60;79.80;;;;;;5091846;28;20020;-45
2021/12/04 14:17:24;;;;;;;4.60;3.55;;;17.40;74.10;;;;;;5091985;28;20035;-45
2021/12/04 14:19:50;;;;;;;4.88;3.50;;;;;;;;;;5089954;28;20032;-44
2021/12/04 14:22:19;;;;;;;4.45;3.47;;;17.50;79.50;;;;;;5092300;28;20052;-47
2021/12/04 14:24:45;;;;;;;6.05;3.40;;;;;;;;;;5091460;28;20487;-45
2021/12/04 14:27:15;;;;;;;3.90;3.05;;;17.30;78.20;;;;;;5091802;28;20057;-46
2021/12/04 14:29:44;;;;;;;3.88;3.10;;;17.30;78.20;;;;;;5091715;28;20024;-45
2021/12/04 14:32:11;;;;;;;4.72;3.35;;;17.20;77.60;;;;;;5092032;28;20020;-45
2021/12/04 14:34:37;;;;;;;4.28;3.03;;;17.20;75.60;;;;;;5091790;28;20027;-47
2021/12/04 14:37:12;;;;;;;6.10;3.28;;;17.40;74.90;;;;;;5091975;28;20419;-63
2021/12/04 14:39:43;;;;;;;3.63;2.70;;;18.80;77.00;;;;;;5092195;28;20020;-62
2021/12/04 14:42:14;;;;;;;4.55;2.88;;;17.40;81.80;;;;;;5095835;28;20047;-62
2021/12/04 14:44:40;;;;;;;6.95;2.50;;;;;;;;;;5093889;28;20428;-62
2021/12/04 14:47:10;;;;;;;4.88;3.08;;;17.20;76.20;;;;;;5095640;28;20047;-63
2021/12/04 14:49:39;;;;;;;7.75;2.30;;;;;;;;;;5093931;28;20094;-63
2021/12/04 14:52:05;;;;;;;3.13;2.40;;;;;;;;;;5094935;28;20054;-64
2021/12/04 14:54:32;;;;;;;6.35;2.55;;;;;;;;;;5093936;28;20095;-62
2021/12/04 14:57:00;;;;;;;4.45;2.72;;;17.40;80.90;;;;;;5092833;28;20024;-63
2021/12/04 14:59:27;;;;;;;4.82;2.10;;;;;;;;;;5093154;28;20023;-63
2021/12/04 15:01:53;;;;;;;9.68;2.00;;;;;;;;;;5093167;28;20450;-60
2021/12/04 15:04:20;;;;;;;6.30;2.35;;;;;;;;;;5092641;28;20141;-60
2021/12/04 15:06:46;;;;;;;3.60;1.88;;;;;;;;;;5092580;28;20486;-60
2021/12/04 15:09:14;;;;;;;3.92;2.10;;;17.30;81.00;;;;;;5093149;28;20042;-61
2021/12/04 15:11:48;;;;;;;2.95;2.40;;;17.00;75.20;;;;;;5094838;28;20098;-60
2021/12/04 15:14:19;;;;;;;3.28;2.00;;;17.00;81.00;;;;;;5094415;28;20028;-60
2021/12/04 15:16:51;;;;;;;2.22;1.73;;;16.90;75.40;;;;;;5094374;28;20463;-60
2021/12/04 15:19:19;;;;;;;2.92;2.20;;;;;;;;;;5094428;28;20142;-61
2021/12/04 15:21:53;;;;;;;4.82;2.00;;;17.00;80.70;;;;;;5094476;28;20028;-60
2021/12/04 15:24:29;;;;;;;2.25;1.90;;;17.00;80.40;;;;;;5094160;28;20028;-64
2021/12/04 15:26:58;;;;;;;3.80;1.65;;;16.90;79.90;;;;;;5094432;28;20062;-64
2021/12/04 15:29:32;;;;;;;3.60;1.80;;;16.80;80.70;;;;;;5094462;28;20055;-64
2021/12/04 15:32:01;;;;;;;3.53;1.67;;;16.80;80.90;;;;;;5094165;28;20050;-63
2021/12/04 15:34:46;;;;;;;3.35;1.90;;;16.70;75.70;;;;;;5094318;28;20023;-64
2021/12/04 15:37:13;;;;;;;3.28;1.60;;;;;;;;;;5094360;28;20217;-64
2021/12/04 15:39:43;;;;;;;2.95;1.75;;;16.60;80.50;;;;;;5094065;28;20541;-64
2021/12/04 15:42:23;;;;;;;2.00;1.42;;;16.70;80.80;;;;;;5094421;28;20024;-67
2021/12/04 15:45:50;;;;;;;5.88;1.80;;;16.70;80.80;;;;;;5094204;28;20032;-62
2021/12/04 15:47:48;;;;;;;4.20;1.50;;;;;;;;;;5090050;28;20039;-64
2021/12/04 15:50:44;;;;;;;3.28;1.67;;;16.70;81.00;;;;;;5094224;28;20363;-64
2021/12/04 15:53:14;;;;;;;3.72;1.27;;;;;;;;;;5094298;28;20019;-63
2021/12/04 15:55:43;;;;;;;1.85;1.50;;;16.60;80.90;;;;;;5093964;28;20078;-63
2021/12/04 15:58:09;;;;;;;3.80;1.85;;;;;;;;;;5093672;28;20024;-64
2021/12/04 16:00:38;;;;;;;2.45;1.35;;;16.60;80.70;;;;;;5093904;28;20089;-63
2021/12/04 16:03:06;;;;;;;3.33;1.95;;;16.60;80.20;;;;;;5093309;28;20040;-63
2021/12/04 16:05:38;;;;;;;2.28;1.30;;;16.60;80.50;;;;;;5093422;28;20032;-64
2021/12/04 16:08:13;;;;;;;3.20;1.30;;;16.60;75.20;;;;;;5093411;28;20111;-64
2021/12/04 16:10:46;;;;;;;2.47;1.50;;;16.50;80.10;;;;;;5093335;28;20020;-63
2021/12/04 16:13:15;;;;;;;2.53;1.23;;;16.60;79.20;;;;;;5093017;28;20032;-63
2021/12/04 16:15:41;;;;;;;2.85;1.48;;;;;;;;;;5093030;28;20073;-63
2021/12/04 16:18:08;;;;;;;3.25;1.65;;;;;;;;;;5093077;28;20433;-63
2021/12/04 16:20:35;;;;;;;2.95;1.38;;;16.30;80.00;;;;;;5093084;28;20447;-63
2021/12/04 16:23:02;;;;;;;3.53;1.70;;;;;;;;;;5093027;28;20020;-63
2021/12/04 16:25:35;;;;;;;1.85;1.63;;;16.40;80.10;;;;;;5092792;28;20127;-63
2021/12/04 16:28:08;;;;;;;4.40;1.35;;;;;;;;;;5092945;28;20080;-63
2021/12/04 16:33:37;;;;;;;4.18;1.40;;;16.50;79.00;;;;;;5093033;28;20123;-62
2021/12/04 16:36:21;;;;;;;;;;;16.70;77.50;;;;;;5093298;28;20081;-62
2021/12/04 16:38:48;;;;;;;2.25;1.38;;;16.60;77.50;;;;;;5092934;28;19904;-63
2021/12/04 16:41:15;;;;;;;3.47;1.48;;;16.50;79.20;;;;;;5092778;28;20430;-63
2021/12/04 16:43:45;;;;;;;4.35;1.83;;;16.60;79.10;;;;;;5092454;28;20031;-63
2021/12/04 16:46:15;;;;;;;4.32;1.48;;;16.60;78.90;;;;;;5092620;28;20063;-63
2021/12/04 16:48:47;;;;;;;2.38;1.30;;;16.80;78.80;;;;;;5092515;28;20024;-63
2021/12/04 16:59:22;;;;;;;3.80;1.45;;;16.60;78.60;;;;;;5092472;28;20047;-63
2021/12/04 17:01:53;;;;;;;3.75;1.50;;;16.60;78.50;;;;;;5092062;28;20027;-63
2021/12/04 17:04:20;;;;;;;3.33;1.45;;;16.60;78.70;;;;;;5091210;28;20055;-63
2021/12/04 17:06:49;;;;;;;3.75;1.50;;;16.60;78.60;;;;;;5092421;28;20108;-63
2021/12/04 17:09:15;;;;;;;3.85;1.50;;;;;;;;;;5092013;28;20395;-63
2021/12/04 17:11:42;;;;;;;3.17;1.38;;;;;;;;;;5092419;28;20035;-60
2021/12/04 17:14:09;;;;;;;2.67;1.10;;;16.70;78.00;;;;;;5090891;28;20118;-60
2021/12/04 17:16:35;;;;;;;4.15;1.60;;;;;;;;;;5092238;28;20028;-61
2021/12/04 17:19:07;;;;;;;1.15;1.05;;;;;;;;;;5092121;28;20020;-60
2021/12/04 17:21:33;;;;;;;2.75;1.20;;;;;;;;;;5090636;28;20032;-60
2021/12/04 17:24:01;;;;;;;3.22;1.55;;;16.70;76.80;;;;;;5092183;28;20366;-61